Hancock County-Bar Harbor Airport Bar Harbor US
ICAO: KBHB
IATA: BHB
Category: Medium
Scheduled Services: Yes

Elevation: 83 ft
TransAlt. 18000 ft.

Airport Communications:
BANGOR APP/DEP:124.5
AWOS 3:118.025
CLNC DEL:119.9
CTAF/UNICOM:123

KBHB Zoom In..

If you have problems with the map follow the link
https://www.worldairports.se/pages/airport.php?
ICAO=KBHB

Runways:

(A) RW 04 length 5200 ft width 100 ft
---- / hdg 44

(B) RW 17 length 3253 ft width 75 ft
---- / hdg 169

(C) RW 22 length 5200 ft width 100 ft
ILS 108.30 / hdg 224

(D) RW 35 length 3253 ft width 75 ft
---- / hdg 349

Location; KBHB
Day. 14 / Time. 05.56 Zulu
* Altimeter: 30.24
* Temperature: 07° c. 44.6°f.
* Wind from: 130° Speed 05 kn.
Dewpoint: 06° c.
Visibility: 10 Statute Miles.
Clouds: Overcast 1000 ft.
Conditions: Light Rain.

KBHB 140556Z AUTO 13005KT 10SM -RA OVC010 07/06 A3024 RMK AO2 SLP243 P0000 60001 T00720061 10072 20056 58030


Wind From 130°
Speed 05 kn.

 
 
jpsmedia worldairports.se 2019   terms of use